Time;durP1;ratioP1;P1;durP2;ratioP2;P2;SDS_P1;SDS_P2;PMS_P1;PMS_P2;Temp;Humidity;BMP_temperature;BMP_pressure;BME280_temperature;BME280_humidity;BME280_pressure;Samples;Min_cycle;Max_cycle;Signal;HPM_P1;HPM_P2
2022/01/03 00:00:28;;;;;;;2.15;1.27;;;;;;;0.73;71.69;101840.28;1853067;76;21137;-51
2022/01/03 00:03:00;;;;;;;4.17;1.42;;;;;;;0.71;71.85;101833.34;1853954;76;21039;-51
2022/01/03 00:05:29;;;;;;;2.02;1.40;;;;;;;0.66;71.94;101828.05;1854197;77;21015;-52
2022/01/03 00:07:58;;;;;;;2.33;1.40;;;;;;;0.67;71.84;101828.52;1854207;77;21517;-56
2022/01/03 00:10:27;;;;;;;2.87;1.72;;;;;;;0.65;71.68;101822.86;1845924;76;21497;-57
2022/01/03 00:12:55;;;;;;;4.35;1.75;;;;;;;0.61;71.51;101820.63;1844977;77;21071;-55
2022/01/03 00:15:24;;;;;;;2.30;1.37;;;;;;;0.55;71.39;101823.08;1845000;77;21035;-54
2022/01/03 00:17:53;;;;;;;27.45;10.65;;;;;;;0.49;71.31;101814.77;1845087;78;21098;-54
2022/01/03 00:20:23;;;;;;;55.43;20.27;;;;;;;0.40;71.25;101813.72;1844877;78;21592;-57
2022/01/03 00:23:04;;;;;;;63.78;22.50;;;;;;;0.28;71.39;101824.30;1857272;76;21078;-56
2022/01/03 00:25:37;;;;;;;26.12;10.28;;;;;;;0.21;71.76;101825.44;1853490;76;21116;-54
2022/01/03 00:28:23;;;;;;;6.17;3.70;;;;;;;0.19;72.04;101826.26;1861196;76;21000;-56
2022/01/03 00:30:55;;;;;;;4.85;2.50;;;;;;;0.22;72.16;101822.84;1848595;76;21102;-56
2022/01/03 00:33:25;;;;;;;6.53;4.00;;;;;;;0.22;72.32;101821.55;1844912;77;21124;-52
2022/01/03 00:35:58;;;;;;;4.92;2.65;;;;;;;0.21;72.44;101819.82;1845100;78;21047;-57
2022/01/03 00:38:28;;;;;;;3.93;2.57;;;;;;;0.19;72.59;101809.42;1845435;78;21114;-57
2022/01/03 00:40:59;;;;;;;4.22;1.85;;;;;;;0.22;72.66;101815.51;1844931;78;21261;-57
2022/01/03 00:43:28;;;;;;;4.05;2.00;;;;;;;0.15;72.80;101814.52;1845097;78;21122;-57
2022/01/03 00:45:58;;;;;;;2.87;1.90;;;;;;;0.15;72.83;101809.34;1828725;77;21038;-57
2022/01/03 00:48:27;;;;;;;4.62;2.77;;;;;;;0.20;72.78;101805.11;1814633;78;21078;-57
2022/01/03 00:50:55;;;;;;;3.23;1.50;;;;;;;0.17;72.85;101787.80;1814506;79;21063;-57
2022/01/03 00:53:24;;;;;;;3.55;2.47;;;;;;;0.13;72.78;101783.41;1815484;78;21051;-57
2022/01/03 00:56:05;;;;;;;12.98;7.20;;;;;;;0.12;72.71;101797.62;1820336;77;21122;-57
2022/01/03 00:58:39;;;;;;;6.10;2.22;;;;;;;0.11;72.75;101794.56;1817952;79;21027;-57
2022/01/03 01:01:08;;;;;;;2.50;1.50;;;;;;;0.13;72.71;101795.45;1818142;78;21070;-58
2022/01/03 01:03:39;;;;;;;2.15;1.27;;;;;;;0.12;72.74;101789.41;1817931;78;21074;-58
2022/01/03 01:06:10;;;;;;;2.98;1.45;;;;;;;0.14;72.88;101788.16;1817817;79;21055;-57
2022/01/03 01:08:39;;;;;;;3.47;1.55;;;;;;;0.17;72.87;101789.09;1818049;79;21086;-57
2022/01/03 01:11:09;;;;;;;2.72;1.30;;;;;;;0.20;72.82;101780.50;1835475;77;21524;-57
2022/01/03 01:13:41;;;;;;;3.83;2.37;;;;;;;0.22;72.85;101779.24;1854507;77;21477;-56
2022/01/03 01:16:10;;;;;;;6.85;4.78;;;;;;;0.26;72.83;101774.56;1854521;77;21141;-57
2022/01/03 01:18:41;;;;;;;7.12;4.35;;;;;;;0.27;72.91;101764.67;1853774;77;21650;-55
2022/01/03 01:21:10;;;;;;;8.98;4.75;;;;;;;0.24;72.86;101756.44;1851957;77;21533;-55
2022/01/03 01:23:41;;;;;;;9.10;2.60;;;;;;;0.17;72.76;101759.73;1854547;77;21137;-57
2022/01/03 01:28:59;;;;;;;4.20;1.70;;;;;;;0.00;72.81;101742.57;1854533;77;21039;-57
2022/01/03 01:31:28;;;;;;;3.42;2.25;;;;;;;-0.09;72.99;101739.36;1854551;77;21094;-57
2022/01/03 01:33:58;;;;;;;4.00;1.95;;;;;;;-0.16;73.24;101738.78;1854518;77;21544;-56
2022/01/03 01:36:30;;;;;;;3.55;1.70;;;;;;;-0.15;73.32;101731.87;1824027;78;21038;-57
2022/01/03 01:39:07;;;;;;;2.72;1.90;;;;;;;-0.17;73.23;101733.13;1823972;78;21074;-55
2022/01/03 01:41:40;;;;;;;4.35;1.98;;;;;;;-0.18;73.17;101724.94;1824005;78;21050;-57
2022/01/03 01:44:11;;;;;;;6.17;2.02;;;;;;;-0.19;73.14;101717.99;1823988;78;21066;-57
2022/01/03 01:46:49;;;;;;;4.20;2.10;;;;;;;-0.23;73.20;101724.82;1820438;77;21067;-57
2022/01/03 01:49:21;;;;;;;8.78;2.75;;;;;;;-0.25;73.36;101741.17;1818053;79;21086;-58
2022/01/03 01:52:02;;;;;;;4.42;1.85;;;;;;;-0.24;73.46;101745.48;1817839;79;21205;-59
2022/01/03 01:54:38;;;;;;;5.45;1.95;;;;;;;-0.22;73.55;101737.36;1817887;77;21149;-58
2022/01/03 01:57:11;;;;;;;5.08;1.80;;;;;;;-0.23;73.59;101746.83;1817912;78;21185;-57
2022/01/03 01:59:47;;;;;;;5.85;1.80;;;;;;;-0.23;73.72;101745.95;1824671;77;21479;-57
2022/01/03 02:02:22;;;;;;;3.85;2.02;;;;;;;-0.20;73.83;101747.33;1854044;77;21545;-58
2022/01/03 02:05:14;;;;;;;6.50;2.12;;;;;;;-0.14;73.86;101743.56;1853355;77;21023;-56
2022/01/03 02:08:05;;;;;;;4.42;1.40;;;;;;;-0.08;73.79;101746.27;1854196;77;21077;-57
2022/01/03 02:10:36;;;;;;;6.90;2.10;;;;;;;-0.02;73.70;101752.89;1851802;77;21086;-57
2022/01/03 02:13:06;;;;;;;5.00;2.10;;;;;;;0.03;73.60;101736.56;1854663;77;21079;-57
2022/01/03 02:15:37;;;;;;;1.75;1.40;;;;;;;0.03;73.59;101734.84;1854715;77;21121;-57
2022/01/03 02:18:07;;;;;;;4.45;2.42;;;;;;;0.02;73.62;101738.69;1854632;77;21117;-57
2022/01/03 02:20:36;;;;;;;4.80;2.17;;;;;;;-0.01;73.72;101733.91;1854668;77;21514;-57
2022/01/03 02:23:06;;;;;;;5.05;2.20;;;;;;;-0.05;73.90;101737.28;1854220;76;21094;-58
2022/01/03 02:25:36;;;;;;;7.30;1.85;;;;;;;-0.07;74.04;101736.38;1834041;77;21541;-57
2022/01/03 02:28:05;;;;;;;4.25;2.20;;;;;;;-0.10;74.18;101741.48;1818077;78;21090;-58
2022/01/03 02:30:35;;;;;;;3.58;2.00;;;;;;;-0.15;74.42;101745.69;1818046;79;21557;-58
2022/01/03 02:33:05;;;;;;;4.00;2.42;;;;;;;-0.21;74.47;101735.21;1817997;79;21542;-56
2022/01/03 02:35:39;;;;;;;6.67;3.75;;;;;;;-0.25;74.75;101737.29;1820401;77;21157;-56
2022/01/03 02:38:10;;;;;;;8.05;2.37;;;;;;;-0.26;74.86;101738.11;1817946;78;21188;-52
2022/01/03 02:40:39;;;;;;;7.85;3.08;;;;;;;-0.20;74.77;101724.03;1818009;79;21550;-54
2022/01/03 02:43:08;;;;;;;4.22;1.90;;;;;;;-0.15;74.74;101724.11;1818113;78;21101;-50
2022/01/03 02:45:37;;;;;;;6.15;2.42;;;;;;;-0.18;74.69;101714.58;1818067;79;21082;-56
2022/01/03 02:48:07;;;;;;;4.53;1.80;;;;;;;-0.17;74.59;101708.54;1817916;79;21066;-57
2022/01/03 02:50:39;;;;;;;5.05;2.33;;;;;;;-0.15;74.54;101703.40;1836221;77;21015;-50
2022/01/03 02:53:08;;;;;;;9.00;2.25;;;;;;;-0.16;74.54;101706.42;1854640;77;21019;-54
2022/01/03 02:55:38;;;;;;;4.00;2.30;;;;;;;-0.17;74.54;101699.48;1855941;77;21078;-55
2022/01/03 02:58:07;;;;;;;4.65;2.17;;;;;;;-0.20;74.50;101696.85;1856932;77;21166;-57
2022/01/03 03:00:48;;;;;;;5.60;2.22;;;;;;;-0.21;74.51;101700.27;1854040;77;21058;-57
2022/01/03 03:03:20;;;;;;;7.53;3.12;;;;;;;-0.21;74.45;101702.42;1855752;77;21066;-55
2022/01/03 03:05:50;;;;;;;9.80;4.05;;;;;;;-0.21;74.44;101704.15;1856989;77;21011;-55
2022/01/03 03:08:20;;;;;;;5.15;2.80;;;;;;;-0.24;74.54;101709.25;1857069;77;21098;-57
2022/01/03 03:10:49;;;;;;;5.08;2.35;;;;;;;-0.26;74.56;101709.64;1856989;77;21129;-54
2022/01/03 03:13:18;;;;;;;6.95;2.58;;;;;;;-0.28;74.57;101702.27;1856854;77;21466;-56
2022/01/03 03:15:48;;;;;;;2.45;1.77;;;;;;;-0.30;74.64;101703.95;1835794;77;21058;-57
2022/01/03 03:18:21;;;;;;;4.67;2.45;;;;;;;-0.31;74.70;101703.52;1816839;79;21567;-57
2022/01/03 03:20:49;;;;;;;7.08;2.10;;;;;;;-0.31;74.70;101700.50;1833014;75;21141;-54
2022/01/03 03:23:18;;;;;;;3.83;1.80;;;;;;;-0.40;75.00;101703.77;1836157;78;21079;-55
2022/01/03 03:25:48;;;;;;;5.25;2.20;;;;;;;-0.45;75.15;101691.56;1835001;78;21074;-52
2022/01/03 03:28:17;;;;;;;5.70;2.15;;;;;;;-0.48;75.31;101694.98;1836221;78;21711;-54
2022/01/03 03:30:48;;;;;;;3.45;1.72;;;;;;;-0.47;75.35;101690.23;1836257;78;21543;-55
2022/01/03 03:33:22;;;;;;;3.65;2.02;;;;;;;-0.46;75.30;101681.65;1834342;78;21117;-54
2022/01/03 03:35:53;;;;;;;4.28;2.00;;;;;;;-0.44;75.27;101692.03;1835068;78;21131;-55
2022/01/03 03:38:26;;;;;;;2.67;1.67;;;;;;;-0.48;75.30;101694.98;1836086;78;21055;-55
2022/01/03 03:40:57;;;;;;;5.60;1.65;;;;;;;-0.57;75.53;101690.89;1827551;78;21480;-56
2022/01/03 03:43:26;;;;;;;9.75;1.80;;;;;;;-0.56;75.53;101680.12;1820066;79;21122;-56
2022/01/03 03:45:55;;;;;;;10.08;2.92;;;;;;;-0.56;75.49;101665.89;1819951;79;21096;-56
2022/01/03 03:48:24;;;;;;;3.75;1.85;;;;;;;-0.55;75.52;101682.74;1819962;79;21053;-57
2022/01/03 03:50:53;;;;;;;2.70;2.00;;;;;;;-0.53;75.54;101670.71;1820910;78;21209;-57
2022/01/03 03:53:22;;;;;;;4.12;2.33;;;;;;;-0.55;75.66;101671.10;1819877;79;21076;-56
2022/01/03 03:55:51;;;;;;;3.40;2.08;;;;;;;-0.57;75.71;101671.49;1820025;78;21088;-57
2022/01/03 03:58:20;;;;;;;5.58;2.27;;;;;;;-0.54;75.74;101681.02;1819944;79;21201;-57
2022/01/03 04:00:49;;;;;;;5.65;2.15;;;;;;;-0.48;75.72;101676.86;1819908;78;21531;-57
2022/01/03 04:03:18;;;;;;;4.78;2.20;;;;;;;-0.43;75.69;101675.22;1819858;79;21515;-57
2022/01/03 04:05:47;;;;;;;3.02;2.20;;;;;;;-0.37;75.65;101669.30;1826560;78;21647;-57
2022/01/03 04:08:15;;;;;;;5.67;1.90;;;;;;;-0.40;75.67;101657.19;1836114;78;21047;-57
2022/01/03 04:10:44;;;;;;;4.03;1.95;;;;;;;-0.41;75.70;101658.05;1836213;78;21136;-57
2022/01/03 04:13:13;;;;;;;2.25;1.60;;;;;;;-0.38;75.70;101661.53;1836193;78;21090;-58
2022/01/03 04:15:41;;;;;;;2.47;1.35;;;;;;;-0.43;75.73;101663.58;1834881;78;21050;-57
2022/01/03 04:18:11;;;;;;;3.12;1.72;;;;;;;-0.46;75.76;101655.77;1836085;78;21635;-57
2022/01/03 04:20:40;;;;;;;3.10;1.82;;;;;;;-0.45;75.76;101658.80;1851063;77;21141;-57
2022/01/03 04:23:08;;;;;;;2.67;1.55;;;;;;;-0.50;75.88;101651.38;1862223;77;21173;-57
2022/01/03 04:25:37;;;;;;;2.33;1.50;;;;;;;-0.49;75.87;101656.13;1862581;77;21059;-56
2022/01/03 04:28:06;;;;;;;3.58;1.60;;;;;;;-0.45;75.83;101656.64;1862441;77;21157;-57
2022/01/03 04:30:36;;;;;;;4.58;2.17;;;;;;;-0.40;75.83;101651.14;1862360;77;21518;-58
2022/01/03 04:33:05;;;;;;;3.33;2.15;;;;;;;-0.32;75.80;101655.18;1862431;77;21475;-57
2022/01/03 04:35:34;;;;;;;2.83;1.65;;;;;;;-0.27;75.77;101657.45;1862457;76;21439;-58
2022/01/03 04:38:03;;;;;;;3.85;1.95;;;;;;;-0.20;75.72;101654.14;1862488;77;21055;-57
2022/01/03 04:40:32;;;;;;;3.83;1.70;;;;;;;-0.15;75.67;101642.13;1862610;77;21566;-56
2022/01/03 04:43:01;;;;;;;3.92;1.98;;;;;;;-0.13;75.58;101635.30;1862246;77;21231;-58
2022/01/03 04:45:29;;;;;;;3.65;2.33;;;;;;;-0.11;75.55;101629.73;1862489;77;21137;-57
2022/01/03 04:48:00;;;;;;;3.77;2.10;;;;;;;-0.09;75.51;101625.84;1874831;75;21081;-57
2022/01/03 04:50:28;;;;;;;3.12;1.80;;;;;;;-0.15;75.50;101625.31;1880705;76;21451;-57
2022/01/03 04:52:57;;;;;;;3.87;1.42;;;;;;;-0.17;75.56;101622.25;1880747;76;21035;-57
2022/01/03 04:55:26;;;;;;;4.28;2.00;;;;;;;-0.17;75.52;101619.23;1880993;76;21038;-58
2022/01/03 04:57:54;;;;;;;3.62;2.27;;;;;;;-0.17;75.52;101617.94;1880989;76;21053;-56
2022/01/03 05:00:23;;;;;;;3.12;1.95;;;;;;;-0.15;75.55;101611.50;1880679;76;21098;-57
2022/01/03 05:02:52;;;;;;;4.03;1.60;;;;;;;-0.17;75.59;101617.94;1880837;76;21022;-57
2022/01/03 05:05:22;;;;;;;3.33;1.37;;;;;;;-0.18;75.59;101612.33;1880758;76;21512;-57
2022/01/03 05:07:51;;;;;;;2.60;1.17;;;;;;;-0.21;75.59;101605.36;1851784;76;21038;-59
2022/01/03 05:10:19;;;;;;;2.80;1.57;;;;;;;-0.21;75.63;101606.66;1880836;76;21023;-50
2022/01/03 05:12:48;;;;;;;1.95;1.20;;;;;;;-0.20;75.63;101604.95;1880644;76;21049;-56
2022/01/03 05:15:17;;;;;;;1.92;0.95;;;;;;;-0.16;75.66;101607.19;1880782;76;21492;-56
2022/01/03 05:17:46;;;;;;;2.30;1.17;;;;;;;-0.11;75.59;101606.83;1880753;76;21050;-65
2022/01/03 05:20:14;;;;;;;4.70;1.47;;;;;;;-0.11;75.49;101607.72;1880232;76;21053;-62
2022/01/03 05:22:44;;;;;;;1.90;1.30;;;;;;;-0.09;75.37;101607.33;1880595;76;21508;-57
2022/01/03 05:25:13;;;;;;;4.85;1.92;;;;;;;-0.08;75.23;101612.94;1880708;76;21438;-60
2022/01/03 05:27:42;;;;;;;4.33;2.10;;;;;;;-0.07;75.10;101600.45;1869856;76;21495;-61
2022/01/03 05:30:13;;;;;;;3.40;1.80;;;;;;;-0.05;75.02;101598.77;1851867;76;21591;-61
2022/01/03 05:32:42;;;;;;;3.05;1.30;;;;;;;-0.05;74.94;101594.88;1880790;76;21112;-62
2022/01/03 05:35:11;;;;;;;4.03;2.12;;;;;;;-0.04;74.98;101597.93;1870552;76;21050;-61
2022/01/03 05:37:40;;;;;;;4.05;1.98;;;;;;;0.04;74.99;101598.47;1880550;76;21493;-60
2022/01/03 05:40:11;;;;;;;2.98;1.35;;;;;;;0.09;75.03;101595.54;1889053;75;20986;-60
2022/01/03 05:42:41;;;;;;;2.62;1.77;;;;;;;0.16;75.00;101594.81;1880839;76;21094;-59
2022/01/03 05:45:10;;;;;;;3.85;1.77;;;;;;;0.18;74.96;101586.64;1881006;76;21046;-59
2022/01/03 05:47:43;;;;;;;5.12;1.72;;;;;;;0.19;74.93;101578.03;1871575;76;21093;-60
2022/01/03 05:50:11;;;;;;;8.05;1.17;;;;;;;0.19;74.88;101576.74;1862835;77;21128;-60
2022/01/03 05:52:41;;;;;;;5.12;1.40;;;;;;;0.19;74.83;101570.27;1862846;77;21074;-59
2022/01/03 05:55:10;;;;;;;2.42;1.77;;;;;;;0.19;74.85;101575.45;1862905;77;21046;-60
2022/01/03 05:57:40;;;;;;;6.67;2.17;;;;;;;0.23;74.88;101581.12;1858660;77;21125;-59
2022/01/03 06:00:14;;;;;;;5.72;2.33;;;;;;;0.27;74.85;101582.91;1856175;76;21500;-60
2022/01/03 06:02:44;;;;;;;;;;;;;;;0.32;74.80;101578.68;1842961;77;21199;-60
2022/01/03 06:08:00;;;;;;;7.55;2.40;;;;;;;0.42;74.69;101567.17;1826177;78;21066;-59
2022/01/03 06:10:31;;;;;;;7.20;2.83;;;;;;;0.47;74.69;101565.53;1850113;77;21505;-60
2022/01/03 06:13:00;;;;;;;3.55;1.85;;;;;;;0.52;74.73;101569.94;1862876;77;21491;-60
2022/01/03 06:15:29;;;;;;;8.18;2.75;;;;;;;0.59;74.72;101560.55;1862962;77;21078;-60
2022/01/03 06:17:58;;;;;;;6.85;2.35;;;;;;;0.67;74.69;101558.93;1863046;77;21042;-60
2022/01/03 06:20:27;;;;;;;5.72;3.02;;;;;;;0.71;74.63;101550.34;1862815;77;21558;-60
2022/01/03 06:22:57;;;;;;;4.87;3.02;;;;;;;0.78;74.63;101544.83;1862739;76;21066;-61
2022/01/03 06:25:26;;;;;;;7.10;2.67;;;;;;;0.86;74.65;101542.34;1862796;77;21119;-59
2022/01/03 06:27:54;;;;;;;7.45;2.55;;;;;;;0.90;74.62;101535.91;1862818;77;21536;-60
2022/01/03 06:30:24;;;;;;;6.70;2.65;;;;;;;0.98;74.62;101532.14;1862892;77;21583;-61
2022/01/03 06:32:53;;;;;;;11.30;2.98;;;;;;;1.06;74.60;101534.39;1862847;77;21501;-60
2022/01/03 06:35:22;;;;;;;5.45;2.58;;;;;;;1.14;74.51;101530.20;1863021;77;21466;-65
2022/01/03 06:37:50;;;;;;;4.20;2.10;;;;;;;1.22;74.47;101521.20;1862773;77;21061;-60
2022/01/03 06:40:21;;;;;;;8.95;3.47;;;;;;;1.23;74.52;101521.63;1862626;77;21076;-60
2022/01/03 06:42:50;;;;;;;5.87;1.95;;;;;;;1.27;74.54;101515.65;1862926;77;21563;-60
2022/01/03 06:45:20;;;;;;;2.67;1.50;;;;;;;1.31;74.54;101506.14;1862812;77;21077;-60
2022/01/03 06:47:52;;;;;;;3.35;1.77;;;;;;;1.37;74.45;101504.08;1862120;76;21173;-60
2022/01/03 06:50:20;;;;;;;2.62;1.72;;;;;;;1.44;74.38;101501.56;1860064;77;21129;-60
2022/01/03 06:52:49;;;;;;;5.00;1.67;;;;;;;1.49;74.27;101488.61;1860147;77;21456;-60
2022/01/03 06:55:18;;;;;;;4.20;2.70;;;;;;;1.52;74.17;101483.03;1860194;77;21139;-60
2022/01/03 06:57:48;;;;;;;6.65;3.05;;;;;;;1.56;74.07;101480.47;1860060;77;21077;-60
2022/01/03 07:00:18;;;;;;;6.55;3.17;;;;;;;1.58;73.98;101484.81;1860083;77;21485;-60
2022/01/03 07:02:47;;;;;;;4.60;2.55;;;;;;;1.61;73.97;101489.19;1857975;77;21441;-59
2022/01/03 07:05:16;;;;;;;4.50;2.52;;;;;;;1.62;74.02;101483.12;1860120;77;21070;-60
2022/01/03 07:07:44;;;;;;;5.25;2.40;;;;;;;1.64;74.06;101484.89;1860209;77;21171;-60
2022/01/03 07:10:17;;;;;;;5.42;2.67;;;;;;;1.71;74.08;101489.70;1860130;77;21046;-60
2022/01/03 07:12:43;;;;;;;8.13;2.90;;;;;;;1.77;74.01;101485.88;1860054;77;21022;-60
2022/01/03 07:20:47;;;;;;;6.50;3.37;;;;;;;1.86;73.68;101483.36;1860126;77;21576;-60
2022/01/03 07:23:17;;;;;;;9.33;3.20;;;;;;;1.87;73.66;101474.70;1860117;77;21077;-60
2022/01/03 07:25:47;;;;;;;10.53;4.85;;;;;;;1.90;73.62;101469.54;1860172;77;21191;-60
2022/01/03 07:28:16;;;;;;;10.80;5.05;;;;;;;1.96;73.59;101470.45;1860210;77;21062;-60
2022/01/03 07:30:46;;;;;;;15.03;5.17;;;;;;;2.00;73.60;101461.38;1860216;77;21046;-59
2022/01/03 07:33:15;;;;;;;14.70;6.20;;;;;;;2.05;73.57;101467.93;1860188;77;21850;-60
2022/01/03 07:35:43;;;;;;;23.30;8.78;;;;;;;2.09;73.54;101470.55;1860123;77;21046;-60
2022/01/03 07:38:12;;;;;;;10.00;4.33;;;;;;;2.12;73.54;101471.88;1860162;77;21054;-60
2022/01/03 07:40:41;;;;;;;10.10;4.85;;;;;;;2.15;73.59;101463.23;1860228;77;21555;-60
2022/01/03 07:43:09;;;;;;;7.42;3.20;;;;;;;2.23;73.64;101460.27;1859996;77;21039;-59
2022/01/03 07:45:38;;;;;;;3.55;2.47;;;;;;;2.34;73.69;101459.45;1860065;77;21445;-59
2022/01/03 07:48:07;;;;;;;6.95;3.25;;;;;;;2.42;73.63;101452.59;1860179;76;21086;-59
2022/01/03 07:50:37;;;;;;;8.05;3.10;;;;;;;2.53;73.62;101447.02;1862595;77;21086;-60
2022/01/03 07:53:06;;;;;;;5.97;2.52;;;;;;;2.62;73.61;101441.87;1862809;77;21046;-59
2022/01/03 07:55:34;;;;;;;4.53;2.90;;;;;;;2.66;73.42;101441.02;1862687;77;21183;-59
2022/01/03 07:58:03;;;;;;;3.67;1.62;;;;;;;2.70;73.18;101430.20;1862741;77;21493;-59
2022/01/03 08:00:32;;;;;;;1.80;1.55;;;;;;;2.78;73.11;101430.23;1862791;77;21505;-60
2022/01/03 08:03:01;;;;;;;2.37;1.42;;;;;;;2.87;72.67;101427.66;1862717;77;21519;-60
2022/01/03 08:05:30;;;;;;;2.37;1.10;;;;;;;2.95;72.32;101421.17;1862708;77;21074;-60
2022/01/03 08:07:59;;;;;;;0.70;0.55;;;;;;;3.06;72.09;101424.67;1862661;77;21474;-60
2022/01/03 08:10:27;;;;;;;1.92;1.40;;;;;;;3.22;71.71;101413.89;1862672;77;21560;-58
2022/01/03 08:12:56;;;;;;;2.15;0.90;;;;;;;3.36;71.76;101400.47;1862740;77;21529;-59
2022/01/03 08:15:25;;;;;;;1.25;1.10;;;;;;;3.52;71.44;101399.17;1862744;77;21081;-59
2022/01/03 08:17:54;;;;;;;0.93;0.82;;;;;;;3.66;71.28;101394.84;1862649;76;21489;-59
2022/01/03 08:20:24;;;;;;;2.50;1.00;;;;;;;3.78;70.73;101388.75;1862715;77;21143;-59
2022/01/03 08:22:53;;;;;;;1.22;0.90;;;;;;;3.86;70.74;101382.67;1862669;77;21075;-59
2022/01/03 08:25:22;;;;;;;2.95;1.17;;;;;;;3.94;70.29;101379.19;1862692;77;21526;-57
2022/01/03 08:27:51;;;;;;;2.83;0.80;;;;;;;4.01;68.54;101379.62;1862890;77;21438;-57
2022/01/03 08:30:20;;;;;;;1.25;1.07;;;;;;;4.10;67.95;101360.05;1862545;77;21570;-58
2022/01/03 08:32:49;;;;;;;3.20;1.27;;;;;;;4.21;67.81;101340.03;1862708;77;21022;-57
2022/01/03 08:35:18;;;;;;;0.60;0.60;;;;;;;4.38;67.25;101341.72;1862672;77;21042;-57
2022/01/03 08:37:47;;;;;;;2.00;1.30;;;;;;;4.59;66.65;101344.25;1862726;77;21066;-58
2022/01/03 08:40:16;;;;;;;0.80;0.80;;;;;;;4.64;65.65;101318.98;1862942;77;21483;-57
2022/01/03 08:42:45;;;;;;;1.50;1.15;;;;;;;4.59;65.61;101310.34;1862600;77;21560;-58
2022/01/03 08:45:14;;;;;;;1.87;1.00;;;;;;;4.49;66.01;101306.03;1862816;77;21082;-58
2022/01/03 08:47:43;;;;;;;1.98;1.10;;;;;;;4.37;65.58;101284.80;1862684;77;21086;-57
2022/01/03 08:50:15;;;;;;;2.27;0.90;;;;;;;4.31;64.93;101253.97;1861071;76;21592;-57
2022/01/03 08:52:43;;;;;;;1.00;0.90;;;;;;;4.33;65.32;101262.20;1859974;77;21156;-57
2022/01/03 08:55:12;;;;;;;2.12;0.88;;;;;;;4.40;65.07;101243.49;1859832;77;21152;-58
2022/01/03 08:57:41;;;;;;;2.00;0.90;;;;;;;4.47;65.18;101220.42;1859981;77;21007;-57
2022/01/03 09:00:11;;;;;;;2.33;1.10;;;;;;;4.54;64.92;101199.95;1859986;77;21122;-57
2022/01/03 09:02:41;;;;;;;1.85;1.50;;;;;;;4.59;63.99;101199.48;1860000;77;21038;-58
2022/01/03 09:05:10;;;;;;;0.82;0.70;;;;;;;4.62;63.77;101195.53;1859995;77;21010;-62
2022/01/03 09:07:39;;;;;;;1.12;0.90;;;;;;;4.67;63.81;101194.62;1859889;77;21461;-61
2022/01/03 09:10:08;;;;;;;0.75;0.70;;;;;;;4.69;63.94;101192.91;1859984;77;21054;-61
2022/01/03 09:12:37;;;;;;;1.10;0.80;;;;;;;4.67;64.33;101178.56;1859939;77;21505;-61
2022/01/03 09:15:06;;;;;;;2.20;1.05;;;;;;;4.65;63.70;101185.53;1860009;77;21179;-61
2022/01/03 09:17:35;;;;;;;2.30;1.90;;;;;;;4.68;63.65;101184.63;1859966;77;21070;-62
2022/01/03 09:20:05;;;;;;;0.93;0.90;;;;;;;4.69;63.96;101151.16;1859862;77;21037;-62
2022/01/03 09:22:39;;;;;;;2.10;1.10;;;;;;;4.74;64.30;101129.79;1860091;77;21108;-61
2022/01/03 09:30:21;;;;;;;1.15;0.90;;;;;;;4.82;63.49;101149.72;1859922;77;21140;-62
2022/01/03 09:32:50;;;;;;;3.20;1.00;;;;;;;4.88;64.33;101170.98;1860000;77;21112;-61
2022/01/03 09:35:21;;;;;;;1.90;0.93;;;;;;;4.91;64.40;101178.80;1860177;77;21477;-62
2022/01/03 09:37:50;;;;;;;0.80;0.80;;;;;;;4.94;64.05;101152.69;1860074;77;21049;-62
2022/01/03 09:40:20;;;;;;;1.32;1.10;;;;;;;4.97;64.15;101134.36;1860066;77;21023;-61
2022/01/03 09:42:54;;;;;;;1.65;1.10;;;;;;;5.00;63.87;101103.48;1859930;77;21107;-61
2022/01/03 09:45:25;;;;;;;1.35;0.75;;;;;;;5.03;64.00;101114.75;1859840;77;21046;-62
2022/01/03 09:47:56;;;;;;;4.33;0.93;;;;;;;5.12;64.14;101111.61;1860051;77;21046;-61
2022/01/03 09:50:25;;;;;;;1.90;1.10;;;;;;;5.20;64.15;101121.09;1860926;76;21054;-62
2022/01/03 09:52:55;;;;;;;3.90;1.20;;;;;;;5.28;63.73;101131.45;1862697;77;21082;-62
2022/01/03 09:55:24;;;;;;;1.80;1.50;;;;;;;5.39;64.04;101134.80;1862663;77;21063;-61
2022/01/03 09:57:55;;;;;;;1.55;0.62;;;;;;;5.49;64.03;101121.64;1862569;77;21172;-62
2022/01/03 10:00:24;;;;;;;1.10;1.00;;;;;;;5.53;63.62;101105.93;1862771;77;21038;-61
2022/01/03 10:02:55;;;;;;;0.88;0.57;;;;;;;5.57;63.23;101105.00;1862633;77;21136;-62
2022/01/03 10:05:23;;;;;;;1.20;0.80;;;;;;;5.72;63.28;101110.47;1862648;77;21050;-61
2022/01/03 10:07:52;;;;;;;4.40;0.98;;;;;;;5.87;63.06;101111.16;1862670;77;21481;-61
2022/01/03 10:10:21;;;;;;;1.27;0.98;;;;;;;5.93;63.25;101104.53;1862543;77;21062;-62
2022/01/03 10:15:40;;;;;;;1.40;0.95;;;;;;;5.94;62.69;101116.72;1820928;79;21536;-61
2022/01/03 10:18:17;;;;;;;2.52;1.00;;;;;;;5.88;62.36;101096.73;1779983;81;21072;-61
2022/01/03 10:20:47;;;;;;;3.75;0.95;;;;;;;5.91;62.93;101112.84;1761643;81;21460;-63
2022/01/03 10:23:17;;;;;;;3.27;0.88;;;;;;;5.85;62.04;101067.20;1762293;81;21554;-61
2022/01/03 10:25:47;;;;;;;3.50;0.70;;;;;;;5.80;62.38;101070.71;1785169;80;21065;-61
2022/01/03 10:28:23;;;;;;;0.50;0.50;;;;;;;5.82;62.55;101046.33;1785175;80;21469;-61
2022/01/03 10:30:53;;;;;;;1.10;0.70;;;;;;;5.85;62.52;101018.40;1784326;80;21094;-61
2022/01/03 10:33:24;;;;;;;1.20;0.90;;;;;;;5.87;62.35;101016.63;1785223;80;21097;-61
2022/01/03 10:35:56;;;;;;;2.05;0.80;;;;;;;5.89;61.84;101003.53;1785416;80;21105;-61
2022/01/03 10:38:37;;;;;;;4.22;1.15;;;;;;;5.94;61.75;100988.65;1783953;80;21065;-61
2022/01/03 10:41:18;;;;;;;0.95;0.70;;;;;;;5.94;61.61;101000.41;1763055;80;21136;-63
2022/01/03 10:43:52;;;;;;;3.27;0.70;;;;;;;5.96;61.91;100985.59;1786731;80;21179;-61
2022/01/03 10:46:32;;;;;;;2.20;0.80;;;;;;;6.26;61.86;100995.12;1788307;80;21153;-63
2022/01/03 10:49:11;;;;;;;0.93;0.90;;;;;;;6.81;59.59;100980.18;1798594;79;21094;-62
2022/01/03 10:52:14;;;;;;;0.85;0.70;;;;;;;6.55;59.87;100957.53;1776669;80;21215;-63
2022/01/03 10:54:44;;;;;;;1.47;0.88;;;;;;;6.38;60.27;100939.97;1757844;82;21136;-64
2022/01/03 10:57:14;;;;;;;2.27;0.95;;;;;;;6.34;61.23;100980.16;1763477;80;21328;-64
2022/01/03 10:59:43;;;;;;;1.07;0.82;;;;;;;6.34;61.77;100980.16;1771464;81;21128;-63
2022/01/03 11:02:13;;;;;;;2.47;1.20;;;;;;;6.27;62.08;100971.56;1779916;80;21599;-65
2022/01/03 11:04:51;;;;;;;1.37;0.80;;;;;;;6.18;62.36;100967.35;1798189;79;21058;-62
2022/01/03 11:16:12;;;;;;;2.42;1.00;;;;;;;6.31;62.42;100899.16;1878343;75;21112;-63
2022/01/03 11:18:49;;;;;;;2.15;1.12;;;;;;;6.28;62.60;100915.74;1878284;76;21113;-64
2022/01/03 11:21:26;;;;;;;1.27;0.85;;;;;;;6.26;62.95;100904.45;1878330;75;21095;-64
2022/01/03 11:24:08;;;;;;;2.37;0.93;;;;;;;6.32;63.38;100916.55;1878263;76;21026;-63
2022/01/03 11:26:47;;;;;;;2.15;1.15;;;;;;;6.41;63.47;100903.30;1878264;76;21117;-63
2022/01/03 11:29:13;;;;;;;1.02;0.60;;;;;;;6.52;62.78;100918.80;1878000;76;21481;-62
2022/01/03 11:31:42;;;;;;;1.72;0.78;;;;;;;6.56;62.21;100938.77;1878217;76;21461;-62
2022/01/03 11:34:14;;;;;;;1.95;0.98;;;;;;;6.60;61.88;100931.72;1878310;76;21127;-62
2022/01/03 11:36:42;;;;;;;3.92;0.90;;;;;;;6.61;61.16;100958.31;1878269;76;21041;-62
2022/01/03 11:39:13;;;;;;;1.12;0.80;;;;;;;6.56;61.24;100971.02;1878463;76;21476;-62
2022/01/03 11:41:44;;;;;;;7.05;1.02;;;;;;;6.51;61.44;100975.91;1878216;75;21108;-64
2022/01/03 12:59:28;;;;;;;2.45;0.75;;;;;;;6.00;68.29;100833.05;1861705;73;21083;-59
2022/01/03 13:01:59;;;;;;;1.87;0.95;;;;;;;5.97;68.79;100833.09;1838117;76;21610;-59
2022/01/03 13:04:28;;;;;;;3.30;0.88;;;;;;;5.93;69.23;100823.11;1892140;75;21226;-59
2022/01/03 13:07:04;;;;;;;2.75;1.10;;;;;;;5.93;69.41;100827.48;1900912;75;21061;-59
2022/01/03 13:09:34;;;;;;;3.08;1.05;;;;;;;5.92;69.46;100830.55;1888773;76;21037;-60
2022/01/03 13:12:05;;;;;;;3.92;0.93;;;;;;;5.94;69.62;100826.61;1888131;76;21033;-61
2022/01/03 13:14:33;;;;;;;0.80;0.80;;;;;;;5.96;69.65;100853.61;1888610;76;21010;-59
2022/01/03 13:17:02;;;;;;;2.67;1.00;;;;;;;5.95;69.72;100821.78;1900216;75;21021;-57
2022/01/03 13:19:34;;;;;;;2.37;1.00;;;;;;;5.96;69.61;100822.23;1917494;75;21111;-59
2022/01/03 13:22:12;;;;;;;4.20;0.90;;;;;;;5.97;69.56;100825.25;1899548;74;21063;-60
2022/01/03 13:24:46;;;;;;;1.92;0.90;;;;;;;5.98;69.60;100806.94;1888070;76;21062;-59
2022/01/03 13:27:18;;;;;;;1.37;0.60;;;;;;;5.99;69.57;100801.25;1913248;74;21019;-58